createdAt,value
2018-02-19T00:02:26.902Z,14.15
2018-02-19T00:04:54.428Z,15.40
2018-02-19T00:07:21.935Z,14.35
2018-02-19T00:09:49.434Z,14.57
2018-02-19T00:12:16.946Z,13.68
2018-02-19T00:14:44.450Z,13.05
2018-02-19T00:17:11.974Z,12.70
2018-02-19T00:19:39.474Z,13.40
2018-02-19T00:22:07.006Z,13.30
2018-02-19T00:24:34.502Z,15.07
2018-02-19T00:27:01.999Z,14.65
2018-02-19T00:29:29.491Z,12.57
2018-02-19T00:31:56.989Z,13.30
2018-02-19T00:34:24.514Z,12.98
2018-02-19T00:36:52.010Z,12.23
2018-02-19T00:39:19.554Z,14.30
2018-02-19T00:41:47.047Z,14.75
2018-02-19T00:44:14.542Z,12.75
2018-02-19T00:46:42.037Z,15.98
2018-02-19T00:49:09.536Z,13.40
2018-02-19T00:51:37.041Z,14.10
2018-02-19T00:54:04.543Z,12.02
2018-02-19T00:56:33.052Z,13.98
2018-02-19T00:59:00.552Z,13.82
2018-02-19T01:01:28.054Z,14.23
2018-02-19T01:03:55.545Z,13.38
2018-02-19T01:06:23.662Z,13.52
2018-02-19T01:08:51.179Z,13.30
2018-02-19T01:11:18.694Z,14.23
2018-02-19T01:13:47.214Z,13.60
2018-02-19T01:16:14.731Z,12.50
2018-02-19T01:18:42.241Z,13.18
2018-02-19T01:21:09.746Z,13.60
2018-02-19T01:23:37.254Z,12.32
2018-02-19T01:26:04.786Z,14.77
2018-02-19T01:28:33.247Z,13.68
2018-02-19T01:31:00.743Z,13.50
2018-02-19T01:33:28.250Z,14.10
2018-02-19T01:35:55.755Z,14.63
2018-02-19T01:38:23.283Z,15.55
2018-02-19T01:40:50.791Z,14.10
2018-02-19T01:43:18.305Z,12.57
2018-02-19T01:45:45.801Z,12.77
2018-02-19T01:48:13.335Z,12.75
2018-02-19T01:53:15.870Z,13.65
2018-02-19T01:55:43.387Z,13.55
2018-02-19T02:00:44.003Z,13.95
2018-02-19T02:03:11.502Z,13.35
2018-02-19T02:05:39.123Z,12.05
2018-02-19T02:08:06.452Z,12.32
2018-02-19T02:10:33.957Z,12.32
2018-02-19T02:13:01.493Z,13.43
2018-02-19T02:15:28.998Z,13.60
2018-02-19T02:17:56.517Z,12.43
2018-02-19T02:20:24.023Z,13.15
2018-02-19T02:22:51.629Z,13.30
2018-02-19T02:25:19.188Z,12.18
2018-02-19T02:27:46.692Z,11.80
2018-02-19T02:30:14.188Z,11.10
2018-02-19T02:32:41.722Z,12.77
2018-02-19T02:35:09.236Z,11.98
2018-02-19T02:37:36.746Z,12.52
2018-02-19T02:40:04.246Z,12.30
2018-02-19T02:42:31.772Z,12.15
2018-02-19T02:44:59.291Z,11.65
2018-02-19T02:47:26.799Z,12.05
2018-02-19T02:49:54.313Z,11.15
2018-02-19T02:52:21.819Z,11.48
2018-02-19T02:54:49.335Z,12.40
2018-02-19T02:57:16.854Z,11.55
2018-02-19T02:59:44.648Z,12.50
2018-02-19T03:02:12.687Z,11.52
2018-02-19T03:04:40.245Z,12.85
2018-02-19T03:07:07.763Z,11.35
2018-02-19T03:09:35.284Z,12.70
2018-02-19T03:12:02.818Z,11.68
2018-02-19T03:14:30.310Z,10.65
2018-02-19T03:16:57.797Z,11.23
2018-02-19T03:19:25.398Z,11.60
2018-02-19T03:21:53.260Z,11.77
2018-02-19T03:24:20.802Z,10.68
2018-02-19T03:26:48.303Z,12.37
2018-02-19T03:29:16.749Z,11.82
2018-02-19T03:31:44.249Z,10.55
2018-02-19T03:34:11.783Z,11.48
2018-02-19T03:36:39.278Z,11.50
2018-02-19T03:39:06.772Z,10.55
2018-02-19T03:41:34.267Z,11.30
2018-02-19T03:44:01.765Z,12.45
2018-02-19T03:46:30.298Z,11.55
2018-02-19T03:48:57.798Z,12.25
2018-02-19T03:51:25.301Z,12.40
2018-02-19T03:53:52.797Z,12.57
2018-02-19T03:56:20.431Z,11.65
2018-02-19T03:58:47.986Z,13.45
2018-02-19T04:01:15.501Z,11.52
2018-02-19T04:03:42.997Z,12.00
2018-02-19T04:06:10.489Z,11.07
2018-02-19T04:08:37.990Z,12.93
2018-02-19T04:11:05.540Z,12.35
2018-02-19T04:13:33.049Z,11.60
2018-02-19T04:16:00.581Z,12.40
2018-02-19T04:18:28.079Z,12.20
2018-02-19T04:20:55.571Z,9.98
2018-02-19T04:23:23.089Z,11.70
2018-02-19T04:25:51.550Z,10.57
2018-02-19T04:28:19.047Z,12.35
2018-02-19T04:30:46.591Z,12.65
2018-02-19T04:33:14.094Z,13.05
2018-02-19T04:35:41.618Z,11.68
2018-02-19T04:38:09.120Z,11.60
2018-02-19T04:40:36.618Z,12.85
2018-02-19T04:43:04.802Z,13.05
2018-02-19T04:45:38.017Z,12.77
2018-02-19T04:48:05.511Z,11.57
2018-02-19T04:50:33.016Z,13.23
2018-02-19T04:53:00.544Z,12.45
2018-02-19T04:55:28.047Z,12.50
2018-02-19T04:57:55.555Z,12.23
2018-02-19T05:00:23.057Z,12.00
2018-02-19T05:02:50.557Z,12.48
2018-02-19T05:05:18.070Z,12.20
2018-02-19T05:07:45.569Z,13.07
2018-02-19T05:10:13.086Z,13.02
2018-02-19T05:12:40.585Z,12.75
2018-02-19T05:15:08.089Z,13.55
2018-02-19T05:17:35.430Z,13.07
2018-02-19T05:20:02.933Z,13.55
2018-02-19T05:22:30.455Z,12.93
2018-02-19T05:24:57.982Z,14.77
2018-02-19T05:27:25.502Z,12.88
2018-02-19T05:29:53.028Z,13.00
2018-02-19T05:32:21.707Z,13.35
2018-02-19T05:34:49.198Z,14.45
2018-02-19T05:37:16.731Z,15.43
2018-02-19T05:39:44.227Z,14.85
2018-02-19T05:42:11.766Z,13.60
2018-02-19T05:44:39.329Z,13.10
2018-02-19T05:47:06.963Z,15.20
2018-02-19T05:49:34.458Z,14.65
2018-02-19T05:52:01.964Z,13.00
2018-02-19T05:54:29.483Z,14.32
2018-02-19T05:56:56.974Z,14.23
2018-02-19T05:59:24.462Z,12.85
2018-02-19T06:01:51.967Z,13.30
2018-02-19T06:04:19.468Z,14.75
2018-02-19T06:06:47.982Z,13.62
2018-02-19T06:09:15.488Z,14.30
2018-02-19T06:11:42.982Z,14.23
2018-02-19T06:14:10.490Z,13.98
2018-02-19T06:16:38.089Z,12.07
2018-02-19T06:19:05.711Z,14.63
2018-02-19T06:21:33.210Z,14.07
2018-02-19T06:24:00.707Z,13.40
2018-02-19T06:26:28.203Z,14.20
2018-02-19T06:28:55.696Z,12.35
2018-02-19T06:31:23.258Z,12.88
2018-02-19T06:33:50.757Z,13.00
2018-02-19T06:36:18.256Z,12.43
2018-02-19T06:38:45.754Z,12.05
2018-02-19T06:41:13.263Z,11.93
2018-02-19T06:43:40.788Z,11.85
2018-02-19T06:46:08.392Z,13.10
2018-02-19T06:48:36.272Z,12.95
2018-02-19T06:51:03.782Z,13.18
2018-02-19T06:53:31.274Z,12.35
2018-02-19T06:55:58.806Z,12.50
2018-02-19T06:58:26.302Z,12.73
2018-02-19T07:00:53.807Z,13.57
2018-02-19T07:03:21.310Z,12.90
2018-02-19T07:05:48.834Z,12.00
2018-02-19T07:08:16.354Z,12.45
2018-02-19T07:10:43.866Z,13.23
2018-02-19T07:13:11.371Z,13.18
2018-02-19T07:15:38.875Z,13.30
2018-02-19T07:18:06.375Z,12.80
2018-02-19T07:20:33.882Z,12.45
2018-02-19T07:23:01.396Z,11.80
2018-02-19T07:25:28.898Z,12.88
2018-02-19T07:27:56.419Z,12.02
2018-02-19T07:30:23.926Z,13.18
2018-02-19T07:32:51.454Z,11.50
2018-02-19T07:35:18.953Z,12.18
2018-02-19T07:37:46.455Z,11.85
2018-02-19T07:40:13.950Z,11.35
2018-02-19T07:42:41.449Z,12.70
2018-02-19T07:45:08.973Z,12.70
2018-02-19T07:47:36.475Z,10.90
2018-02-19T07:50:03.727Z,11.30
2018-02-19T07:52:31.248Z,11.52
2018-02-19T07:54:58.764Z,13.23
2018-02-19T07:57:26.256Z,11.02
2018-02-19T07:59:54.129Z,10.20
2018-02-19T08:02:21.627Z,12.13
2018-02-19T08:04:49.134Z,12.37
2018-02-19T08:07:16.634Z,11.35
2018-02-19T08:09:44.133Z,9.88
2018-02-19T08:12:11.628Z,10.95
2018-02-19T08:14:39.129Z,10.52
2018-02-19T08:17:06.625Z,10.18
2018-02-19T08:19:34.130Z,8.57
2018-02-19T08:22:01.626Z,10.75
2018-02-19T08:24:29.163Z,10.18
2018-02-19T08:26:56.826Z,10.60
2018-02-19T08:29:24.330Z,12.35
2018-02-19T08:31:51.894Z,11.40
2018-02-19T08:34:19.386Z,11.35
2018-02-19T08:36:46.880Z,10.20
2018-02-19T08:39:14.381Z,12.68
2018-02-19T08:41:41.877Z,10.80
2018-02-19T08:44:09.410Z,11.23
2018-02-19T08:46:36.897Z,11.50
2018-02-19T08:49:04.157Z,12.20
2018-02-19T08:51:31.646Z,10.38
2018-02-19T08:53:59.143Z,10.48
2018-02-19T08:56:26.663Z,11.02
2018-02-19T08:58:54.177Z,12.48
2018-02-19T09:01:21.716Z,10.82
2018-02-19T09:03:49.211Z,9.88
2018-02-19T09:06:16.706Z,10.45
2018-02-19T09:08:44.237Z,10.40
2018-02-19T09:11:11.730Z,10.52
2018-02-19T09:13:39.222Z,11.18
2018-02-19T09:16:06.711Z,9.77
2018-02-19T09:18:34.193Z,9.05
2018-02-19T09:21:01.895Z,9.13
2018-02-19T09:23:29.422Z,8.63
2018-02-19T09:25:57.254Z,10.13
2018-02-19T09:28:24.779Z,11.40
2018-02-19T09:30:52.460Z,11.00
2018-02-19T09:33:19.974Z,9.20
2018-02-19T09:35:47.460Z,11.63
2018-02-19T09:38:14.975Z,9.98
2018-02-19T09:40:42.467Z,10.07
2018-02-19T09:43:09.954Z,11.05
2018-02-19T09:45:37.480Z,10.85
2018-02-19T09:48:04.962Z,9.88
2018-02-19T09:50:32.465Z,10.38
2018-02-19T09:52:59.992Z,10.80
2018-02-19T09:55:27.650Z,10.60
2018-02-19T09:57:55.188Z,12.18
2018-02-19T10:00:22.691Z,10.55
2018-02-19T10:02:50.183Z,9.45
2018-02-19T10:05:17.684Z,10.75
2018-02-19T10:07:45.183Z,10.35
2018-02-19T10:10:13.314Z,8.80
2018-02-19T10:12:40.808Z,11.15
2018-02-19T10:15:08.294Z,10.40
2018-02-19T10:17:35.790Z,10.30
2018-02-19T10:20:03.285Z,11.10
2018-02-19T10:22:31.041Z,10.90
2018-02-19T10:24:58.562Z,9.10
2018-02-19T10:27:26.057Z,9.98
2018-02-19T10:29:53.541Z,9.65
2018-02-19T10:32:21.042Z,10.25
2018-02-19T10:34:48.561Z,9.90
2018-02-19T10:37:16.059Z,8.20
2018-02-19T10:39:43.390Z,9.15
2018-02-19T10:42:10.874Z,8.93
2018-02-19T10:44:38.369Z,8.98
2018-02-19T10:47:05.876Z,9.15
2018-02-19T10:49:33.380Z,9.10
2018-02-19T10:52:01.465Z,8.95
2018-02-19T10:54:28.949Z,8.25
2018-02-19T10:56:56.435Z,9.73
2018-02-19T10:59:23.948Z,10.57
2018-02-19T11:01:51.435Z,8.38
2018-02-19T11:04:18.930Z,10.57
2018-02-19T11:06:46.418Z,9.38
2018-02-19T11:09:13.914Z,10.45
2018-02-19T11:11:41.447Z,9.48
2018-02-19T11:14:08.941Z,9.45
2018-02-19T11:16:36.435Z,9.95
2018-02-19T11:19:03.941Z,11.30
2018-02-19T11:21:32.378Z,10.25
2018-02-19T11:23:59.887Z,9.65
2018-02-19T11:26:27.402Z,10.40
2018-02-19T11:28:54.906Z,10.05
2018-02-19T11:31:22.408Z,10.38
2018-02-19T11:33:49.914Z,10.10
2018-02-19T11:36:17.435Z,11.00
2018-02-19T11:38:55.272Z,9.13
2018-02-19T11:41:12.626Z,9.75
2018-02-19T11:43:40.135Z,10.52
2018-02-19T11:46:07.646Z,9.75
2018-02-19T11:48:35.151Z,9.07
2018-02-19T11:51:02.634Z,8.80
2018-02-19T11:53:30.128Z,10.30
2018-02-19T11:55:57.627Z,9.48
2018-02-19T11:58:25.125Z,9.48
2018-02-19T12:00:52.634Z,8.73
2018-02-19T12:03:20.200Z,9.88
2018-02-19T12:05:48.638Z,8.68
2018-02-19T12:08:16.135Z,9.00
2018-02-19T12:10:43.642Z,10.05
2018-02-19T12:13:11.157Z,10.32
2018-02-19T12:15:41.520Z,9.27
2018-02-19T12:18:09.043Z,9.73
2018-02-19T12:20:36.559Z,9.13
2018-02-19T12:23:04.180Z,9.45
2018-02-19T12:25:31.886Z,8.60
2018-02-19T12:27:59.142Z,8.77
2018-02-19T12:30:26.643Z,9.30
2018-02-19T12:32:54.343Z,9.07
2018-02-19T12:35:21.830Z,9.27
2018-02-19T12:37:49.383Z,9.77
2018-02-19T12:40:16.693Z,10.05
2018-02-19T12:42:44.190Z,9.38
2018-02-19T12:45:11.724Z,10.63
2018-02-19T12:47:39.386Z,10.40
2018-02-19T12:50:06.890Z,9.63
2018-02-19T12:52:34.388Z,11.02
2018-02-19T12:55:01.886Z,11.27
2018-02-19T12:57:29.420Z,10.80
2018-02-19T12:59:56.913Z,10.48
2018-02-19T13:02:24.430Z,11.55
2018-02-19T13:04:51.927Z,11.00
2018-02-19T13:07:19.422Z,10.60
2018-02-19T13:09:46.909Z,11.15
2018-02-19T13:12:14.222Z,10.77
2018-02-19T13:14:41.918Z,11.35
2018-02-19T13:17:09.423Z,10.95
2018-02-19T13:19:36.962Z,11.52
2018-02-19T13:22:04.462Z,12.20
2018-02-19T13:24:31.978Z,11.65
2018-02-19T13:26:59.502Z,11.40
2018-02-19T13:29:27.017Z,10.65
2018-02-19T13:31:54.516Z,11.25
2018-02-19T13:34:22.002Z,10.70
2018-02-19T13:36:49.483Z,9.65
2018-02-19T13:39:17.007Z,10.23
2018-02-19T13:41:44.518Z,10.27
2018-02-19T13:44:12.028Z,11.07
2018-02-19T13:46:39.550Z,12.00
2018-02-19T13:49:07.046Z,11.38
2018-02-19T13:51:34.664Z,10.93
2018-02-19T13:54:02.365Z,10.32
2018-02-19T13:56:29.857Z,9.93
2018-02-19T13:58:57.373Z,10.00
2018-02-19T14:01:24.868Z,10.85
2018-02-19T14:03:52.382Z,9.68
2018-02-19T14:06:20.420Z,10.88
2018-02-19T14:08:47.910Z,9.43
2018-02-19T14:11:15.419Z,9.55
2018-02-19T14:13:43.111Z,11.55
2018-02-19T14:16:10.626Z,10.18
2018-02-19T14:18:38.121Z,10.25
2018-02-19T14:21:05.680Z,10.73
2018-02-19T14:23:33.176Z,9.98
2018-02-19T14:26:00.672Z,12.02
2018-02-19T14:28:28.182Z,11.20
2018-02-19T14:30:55.694Z,12.90
2018-02-19T14:33:23.200Z,11.93
2018-02-19T14:35:50.694Z,11.02
2018-02-19T14:38:18.226Z,12.68
2018-02-19T14:40:45.491Z,11.65
2018-02-19T14:43:13.027Z,10.48
2018-02-19T14:45:40.558Z,12.13
2018-02-19T14:48:08.060Z,13.15
2018-02-19T14:50:35.571Z,11.80
2018-02-19T14:53:03.101Z,14.52
2018-02-19T14:55:30.619Z,16.05
2018-02-19T14:57:58.118Z,16.15
2018-02-19T15:00:25.614Z,16.20
2018-02-19T15:02:53.118Z,14.95
2018-02-19T15:05:20.620Z,15.70
2018-02-19T15:07:50.317Z,15.55
2018-02-19T15:10:17.814Z,15.90
2018-02-19T15:12:45.670Z,17.87
2018-02-19T15:15:14.340Z,17.98
2018-02-19T15:17:42.030Z,17.83
2018-02-19T15:20:09.667Z,18.58
2018-02-19T15:22:37.162Z,16.23
2018-02-19T15:25:04.653Z,17.30
2018-02-19T15:27:33.110Z,15.98
2018-02-19T15:30:00.616Z,24.15
2018-02-19T15:32:28.106Z,16.98
2018-02-19T15:34:56.548Z,16.37
2018-02-19T15:37:26.027Z,16.42
2018-02-19T15:39:53.531Z,15.30
2018-02-19T15:42:21.078Z,16.17
2018-02-19T15:44:48.798Z,17.00
2018-02-19T15:47:16.292Z,17.65
2018-02-19T15:49:43.802Z,17.67
2018-02-19T15:52:11.534Z,16.00
2018-02-19T15:54:40.602Z,16.08
2018-02-19T15:57:09.060Z,16.27
2018-02-19T15:59:36.642Z,15.50
2018-02-19T16:02:03.965Z,17.90
2018-02-19T16:04:31.466Z,15.88
2018-02-19T16:06:59.090Z,16.40
2018-02-19T16:09:26.585Z,15.35
2018-02-19T16:11:54.098Z,16.65
2018-02-19T16:14:21.615Z,16.20
2018-02-19T16:16:49.098Z,17.15
2018-02-19T16:19:16.593Z,16.95
2018-02-19T16:21:43.918Z,15.60
2018-02-19T16:24:11.505Z,15.80
2018-02-19T16:26:39.026Z,17.87
2018-02-19T16:29:06.524Z,15.90
2018-02-19T16:31:34.017Z,16.67
2018-02-19T16:34:01.508Z,16.10
2018-02-19T16:36:29.233Z,16.95
2018-02-19T16:38:56.747Z,17.20
2018-02-19T16:41:24.267Z,16.25
2018-02-19T16:43:51.766Z,16.45
2018-02-19T16:46:19.276Z,16.50
2018-02-19T16:48:46.769Z,16.67
2018-02-19T16:51:15.283Z,17.30
2018-02-19T16:53:42.781Z,16.05
2018-02-19T16:56:11.240Z,15.27
2018-02-19T16:58:38.926Z,17.12
2018-02-19T17:01:06.586Z,17.73
2018-02-19T17:03:34.096Z,16.73
2018-02-19T17:06:01.595Z,16.92
2018-02-19T17:08:29.094Z,16.83
2018-02-19T17:10:56.599Z,16.25
2018-02-19T17:13:24.095Z,16.62
2018-02-19T17:15:51.607Z,17.42
2018-02-19T17:18:19.119Z,16.55
2018-02-19T17:20:48.269Z,16.77
2018-02-19T17:23:15.754Z,17.50
2018-02-19T17:25:43.246Z,16.85
2018-02-19T17:28:10.770Z,21.45
2018-02-19T17:30:38.275Z,19.00
2018-02-19T17:33:05.769Z,16.90
2018-02-19T17:35:33.270Z,19.50
2018-02-19T17:38:00.767Z,17.60
2018-02-19T17:40:28.289Z,19.17
2018-02-19T17:42:55.782Z,16.73
2018-02-19T17:45:23.279Z,17.55
2018-02-19T17:47:50.778Z,19.20
2018-02-19T17:50:18.328Z,18.70
2018-02-19T17:52:46.006Z,19.90
2018-02-19T17:55:13.517Z,17.52
2018-02-19T17:57:41.019Z,16.55
2018-02-19T18:00:08.524Z,18.08
2018-02-19T18:02:36.018Z,17.95
2018-02-19T18:05:03.540Z,17.85
2018-02-19T18:07:31.042Z,19.52
2018-02-19T18:09:58.558Z,21.48
2018-02-19T18:12:26.070Z,16.90
2018-02-19T18:14:53.561Z,18.23
2018-02-19T18:17:21.074Z,17.48
2018-02-19T18:19:48.379Z,17.87
2018-02-19T18:22:15.879Z,18.23
2018-02-19T18:24:43.375Z,18.10
2018-02-19T18:27:10.889Z,19.00
2018-02-19T18:29:38.411Z,16.70
2018-02-19T18:32:05.927Z,18.33
2018-02-19T18:34:33.425Z,17.90
2018-02-19T18:37:00.934Z,19.70
2018-02-19T18:39:28.430Z,17.00
2018-02-19T18:41:55.939Z,17.02
2018-02-19T18:44:23.458Z,17.73
2018-02-19T18:46:50.950Z,17.85
2018-02-19T18:49:19.473Z,17.67
2018-02-19T18:51:46.978Z,17.90
2018-02-19T18:54:17.650Z,18.12
2018-02-19T18:56:53.199Z,18.70
2018-02-19T18:59:23.683Z,18.35
2018-02-19T19:01:51.176Z,16.67
2018-02-19T19:04:18.739Z,17.10
2018-02-19T19:06:46.230Z,18.35
2018-02-19T19:09:19.410Z,17.25
2018-02-19T19:11:46.909Z,16.75
2018-02-19T19:14:14.490Z,19.30
2018-02-19T19:16:42.002Z,19.95
2018-02-19T19:19:09.518Z,18.35
2018-02-19T19:21:37.011Z,17.77
2018-02-19T19:24:04.518Z,18.80
2018-02-19T19:26:32.031Z,18.02
2018-02-19T19:28:59.921Z,18.52
2018-02-19T19:31:27.435Z,18.08
2018-02-19T19:33:54.923Z,16.90
2018-02-19T19:36:22.418Z,16.65
2018-02-19T19:41:22.118Z,16.98
2018-02-19T19:43:49.650Z,17.25
2018-02-19T19:46:17.165Z,18.30
2018-02-19T19:48:44.726Z,17.10
2018-02-19T19:51:12.252Z,17.62
2018-02-19T19:53:39.771Z,18.25
2018-02-19T19:56:07.311Z,16.75
2018-02-19T19:58:37.260Z,18.25
2018-02-19T20:01:04.768Z,17.98
2018-02-19T20:03:32.282Z,17.27
2018-02-19T20:06:00.858Z,17.48
2018-02-19T20:08:28.360Z,18.10
2018-02-19T20:10:55.860Z,17.37
2018-02-19T20:13:23.364Z,18.42
2018-02-19T20:15:50.865Z,18.25
2018-02-19T20:18:18.406Z,17.00
2018-02-19T20:20:46.002Z,15.60
2018-02-19T20:23:13.498Z,16.55
2018-02-19T20:25:41.005Z,16.87
2018-02-19T20:28:08.539Z,16.55
2018-02-19T20:30:36.106Z,15.88
2018-02-19T20:33:03.681Z,17.50
2018-02-19T20:35:31.197Z,16.98
2018-02-19T20:37:58.714Z,16.65
2018-02-19T20:40:26.301Z,17.60
2018-02-19T20:42:53.840Z,16.65
2018-02-19T20:45:21.391Z,17.10
2018-02-19T20:47:48.901Z,18.23
2018-02-19T20:50:16.410Z,16.77
2018-02-19T20:52:43.901Z,16.80
